Time;durP1;ratioP1;P1;durP2;ratioP2;P2;SDS_P1;SDS_P2;PMS_P1;PMS_P2;Temp;Humidity;BMP_temperature;BMP_pressure;BME280_temperature;BME280_humidity;BME280_pressure;Samples;Min_cycle;Max_cycle;Signal;HPM_P1;HPM_P2
2023/11/13 00:00:49;;;;;;;4.43;3.17;;;6.40;99.90;;;;;;5025423;28;20061;-71
2023/11/13 00:03:15;;;;;;;5.57;2.83;;;6.40;99.90;;;;;;5028612;28;20045;-71
2023/11/13 00:05:41;;;;;;;5.38;2.42;;;6.40;99.90;;;;;;5026605;28;20036;-71
2023/11/13 00:08:07;;;;;;;14.00;3.42;;;6.40;99.90;;;;;;5019600;28;20026;-71
2023/11/13 00:10:33;;;;;;;5.93;2.75;;;6.40;99.90;;;;;;5020812;28;20313;-71
2023/11/13 00:12:59;;;;;;;8.63;3.22;;;6.50;99.90;;;;;;5027081;28;20034;-70
2023/11/13 00:15:26;;;;;;;9.02;3.58;;;6.50;99.90;;;;;;5029012;28;20029;-70
2023/11/13 00:17:52;;;;;;;4.30;2.55;;;6.50;99.90;;;;;;5026980;28;20087;-70
2023/11/13 00:20:19;;;;;;;5.88;3.40;;;6.50;99.90;;;;;;5016197;28;20036;-71
2023/11/13 00:22:46;;;;;;;4.53;3.15;;;6.50;99.90;;;;;;5028460;28;20494;-71
2023/11/13 00:25:12;;;;;;;6.13;3.17;;;6.50;99.90;;;;;;5026442;28;20034;-70
2023/11/13 00:27:38;;;;;;;7.38;3.92;;;6.50;99.90;;;;;;5020354;28;20117;-71
2023/11/13 00:30:06;;;;;;;3.90;2.75;;;6.50;99.90;;;;;;5029201;28;20025;-71
2023/11/13 00:32:32;;;;;;;7.07;3.78;;;6.50;99.90;;;;;;5006527;28;20025;-71
2023/11/13 00:34:58;;;;;;;5.68;3.70;;;6.50;99.90;;;;;;5026489;28;20049;-72
2023/11/13 00:37:24;;;;;;;7.25;3.75;;;6.60;99.90;;;;;;5024603;28;20499;-71
2023/11/13 00:39:50;;;;;;;6.65;3.65;;;6.60;99.90;;;;;;5033729;28;20029;-72
2023/11/13 00:42:16;;;;;;;6.93;3.42;;;6.60;99.90;;;;;;5027088;28;20059;-72
2023/11/13 00:44:42;;;;;;;7.20;3.50;;;6.60;99.90;;;;;;5035310;28;20024;-71
2023/11/13 00:47:08;;;;;;;7.03;4.15;;;6.60;99.90;;;;;;5037535;28;20029;-71
2023/11/13 00:49:34;;;;;;;7.43;4.47;;;6.60;99.90;;;;;;5034800;28;20032;-71
2023/11/13 00:52:00;;;;;;;8.88;4.63;;;6.60;99.90;;;;;;5026159;28;20081;-71
2023/11/13 00:54:26;;;;;;;9.20;4.38;;;6.60;99.90;;;;;;5011314;28;20491;-71
2023/11/13 00:56:52;;;;;;;4.65;3.10;;;6.60;99.90;;;;;;5023191;28;20127;-71
2023/11/13 00:59:17;;;;;;;6.68;3.75;;;6.70;99.90;;;;;;5029306;28;20033;-71
2023/11/13 01:01:44;;;;;;;5.75;4.13;;;6.70;99.90;;;;;;5032227;28;20052;-71
2023/11/13 01:04:10;;;;;;;6.85;3.53;;;6.70;99.90;;;;;;5035052;28;20025;-71
2023/11/13 01:06:36;;;;;;;12.77;4.20;;;6.70;99.90;;;;;;5031175;28;20032;-71
2023/11/13 01:09:02;;;;;;;7.40;3.88;;;6.70;99.90;;;;;;5035776;28;20047;-71
2023/11/13 01:11:28;;;;;;;7.10;3.70;;;6.80;99.90;;;;;;5034236;28;20052;-71
2023/11/13 01:13:57;;;;;;;6.60;3.47;;;6.80;99.90;;;;;;5033464;28;20364;-70
2023/11/13 01:16:23;;;;;;;7.45;3.95;;;6.80;99.90;;;;;;5033999;28;20033;-71
2023/11/13 01:18:53;;;;;;;7.70;3.97;;;6.80;99.90;;;;;;5034308;28;20131;-71
2023/11/13 01:21:22;;;;;;;4.75;3.05;;;6.80;99.90;;;;;;5027536;28;20044;-71
2023/11/13 01:23:48;;;;;;;5.80;3.22;;;6.80;99.90;;;;;;5015930;28;20041;-71
2023/11/13 01:26:13;;;;;;;5.85;3.10;;;6.80;99.90;;;;;;5029353;28;20052;-71
2023/11/13 01:28:40;;;;;;;5.45;2.97;;;6.90;99.90;;;;;;5028259;28;20084;-70
2023/11/13 01:31:07;;;;;;;6.90;3.17;;;6.80;99.90;;;;;;5032588;28;20117;-70
2023/11/13 01:33:36;;;;;;;7.55;3.90;;;6.90;99.90;;;;;;5034362;28;20032;-71
2023/11/13 01:36:02;;;;;;;4.95;3.25;;;6.90;99.90;;;;;;5033411;28;20548;-71
2023/11/13 01:38:27;;;;;;;4.80;3.40;;;6.90;99.90;;;;;;5029340;28;20026;-71
2023/11/13 01:40:54;;;;;;;6.25;3.30;;;6.90;99.90;;;;;;5032266;28;20372;-71
2023/11/13 01:43:21;;;;;;;6.30;3.47;;;6.90;99.90;;;;;;5029300;28;20092;-71
2023/11/13 01:45:53;;;;;;;7.85;3.70;;;6.90;99.90;;;;;;5030842;28;20514;-71
2023/11/13 01:48:20;;;;;;;4.88;3.08;;;7.00;99.90;;;;;;5027299;28;20045;-72
2023/11/13 01:50:45;;;;;;;10.35;3.95;;;7.00;99.90;;;;;;5030819;28;20035;-71
2023/11/13 01:53:14;;;;;;;7.35;2.72;;;7.00;99.90;;;;;;5034890;28;20021;-71
2023/11/13 01:55:41;;;;;;;8.13;3.65;;;7.00;99.90;;;;;;5031995;28;20033;-71
2023/11/13 01:58:07;;;;;;;6.03;2.78;;;7.00;99.90;;;;;;5028671;28;20041;-71
2023/11/13 02:00:34;;;;;;;5.85;3.15;;;7.00;99.90;;;;;;5028277;28;20579;-71
2023/11/13 02:03:03;;;;;;;6.57;3.55;;;7.00;99.90;;;;;;5028670;28;20025;-71
2023/11/13 02:05:29;;;;;;;6.80;2.88;;;7.00;99.90;;;;;;5019152;28;20029;-71
2023/11/13 02:07:55;;;;;;;4.95;2.58;;;7.10;99.90;;;;;;5018664;28;20034;-71
2023/11/13 02:10:21;;;;;;;5.13;3.55;;;7.00;99.90;;;;;;5013905;28;20022;-71
2023/11/13 02:12:47;;;;;;;5.90;2.97;;;7.10;99.90;;;;;;5014810;28;20033;-71
2023/11/13 02:15:13;;;;;;;6.63;2.65;;;7.10;99.90;;;;;;5025789;28;20060;-71
2023/11/13 02:17:38;;;;;;;2.63;1.63;;;7.10;99.90;;;;;;5013747;28;20053;-70
2023/11/13 02:20:05;;;;;;;4.57;2.30;;;7.10;99.90;;;;;;5028472;28;20105;-71
2023/11/13 02:22:31;;;;;;;3.13;1.88;;;7.10;99.90;;;;;;5015512;28;20080;-71
2023/11/13 02:24:57;;;;;;;4.47;2.38;;;7.10;99.90;;;;;;5019565;28;20467;-70
2023/11/13 02:27:23;;;;;;;4.35;2.58;;;7.10;99.90;;;;;;5031053;28;20116;-70
2023/11/13 02:29:49;;;;;;;4.32;2.53;;;7.10;99.90;;;;;;5028090;28;20076;-70
2023/11/13 02:32:15;;;;;;;4.43;2.60;;;7.10;99.90;;;;;;5015152;28;20429;-70
2023/11/13 02:34:41;;;;;;;5.13;2.47;;;7.10;99.90;;;;;;5013039;28;20121;-70
2023/11/13 02:37:07;;;;;;;5.88;2.45;;;7.10;99.90;;;;;;5023599;28;20049;-70
2023/11/13 02:39:33;;;;;;;3.55;2.03;;;7.10;99.90;;;;;;5012758;28;20053;-70
2023/11/13 02:41:58;;;;;;;4.18;2.30;;;7.10;99.90;;;;;;5018650;28;20043;-70
2023/11/13 02:44:24;;;;;;;6.68;2.42;;;7.20;99.90;;;;;;5011889;28;20033;-70
2023/11/13 02:46:50;;;;;;;4.57;3.10;;;7.20;99.90;;;;;;5021353;28;20038;-70
2023/11/13 02:49:16;;;;;;;4.00;1.85;;;7.20;99.90;;;;;;5017902;28;20025;-70
2023/11/13 02:51:41;;;;;;;3.83;2.05;;;7.20;99.90;;;;;;5015086;28;20022;-70
2023/11/13 02:54:08;;;;;;;4.53;2.42;;;7.20;99.90;;;;;;5012860;28;20026;-70
2023/11/13 02:56:34;;;;;;;4.47;2.40;;;7.20;99.90;;;;;;5024447;28;20029;-70
2023/11/13 02:59:00;;;;;;;5.30;2.60;;;7.30;99.90;;;;;;5031134;28;20021;-70
2023/11/13 03:01:25;;;;;;;2.78;2.22;;;7.30;99.90;;;;;;5023666;28;20195;-70
2023/11/13 03:03:51;;;;;;;5.82;2.78;;;7.30;99.90;;;;;;5016897;28;20042;-70
2023/11/13 03:06:19;;;;;;;3.97;2.58;;;7.30;99.90;;;;;;5013900;28;20038;-70
2023/11/13 03:08:45;;;;;;;3.85;2.63;;;7.30;99.90;;;;;;5028451;28;20052;-70
2023/11/13 03:11:16;;;;;;;2.85;1.50;;;7.40;99.90;;;;;;5014658;28;20579;-70
2023/11/13 03:13:41;;;;;;;3.15;2.40;;;7.40;99.90;;;;;;5043655;28;20506;-70
2023/11/13 03:16:11;;;;;;;2.58;1.52;;;7.40;99.90;;;;;;5021612;28;20026;-70
2023/11/13 03:18:37;;;;;;;3.33;1.92;;;7.40;99.90;;;;;;5012095;28;20034;-70
2023/11/13 03:21:04;;;;;;;2.15;1.30;;;7.50;99.90;;;;;;5018890;28;20418;-69
2023/11/13 03:23:30;;;;;;;4.75;2.03;;;7.50;99.90;;;;;;5043330;28;20025;-69
2023/11/13 03:25:59;;;;;;;4.10;2.05;;;7.40;99.90;;;;;;5026577;28;20029;-70
2023/11/13 03:28:25;;;;;;;3.47;1.85;;;7.40;99.90;;;;;;5022053;28;20038;-70
2023/11/13 03:30:50;;;;;;;4.20;1.98;;;7.40;99.90;;;;;;5043042;28;20059;-70
2023/11/13 03:33:16;;;;;;;2.53;1.95;;;7.40;99.90;;;;;;5018036;28;20503;-70
2023/11/13 03:35:42;;;;;;;2.85;1.83;;;7.40;99.90;;;;;;5016174;28;20029;-70
2023/11/13 03:38:07;;;;;;;2.58;1.70;;;7.40;99.90;;;;;;5010360;28;20026;-69
2023/11/13 03:40:33;;;;;;;3.10;1.55;;;7.40;99.90;;;;;;5026392;28;20154;-69
2023/11/13 03:42:59;;;;;;;3.38;1.58;;;7.40;99.90;;;;;;5011909;28;20044;-70
2023/11/13 03:45:24;;;;;;;2.15;1.30;;;7.50;99.90;;;;;;5013243;28;20030;-69
2023/11/13 03:47:50;;;;;;;2.90;1.50;;;7.50;99.90;;;;;;5012294;28;20030;-70
2023/11/13 03:50:16;;;;;;;1.83;1.15;;;7.50;99.90;;;;;;5021316;28;20371;-70
2023/11/13 03:52:42;;;;;;;2.90;1.70;;;7.50;99.90;;;;;;5022020;28;20541;-70
2023/11/13 03:55:08;;;;;;;3.63;2.10;;;7.60;99.90;;;;;;5016961;28;20100;-70
2023/11/13 03:57:34;;;;;;;3.97;1.52;;;7.50;99.90;;;;;;5014840;28;20060;-70
2023/11/13 03:59:59;;;;;;;4.07;1.95;;;7.60;99.90;;;;;;5012805;28;20562;-70
2023/11/13 04:02:26;;;;;;;3.53;1.75;;;7.60;99.90;;;;;;5022889;28;20036;-70
2023/11/13 04:04:51;;;;;;;3.03;1.60;;;7.60;99.90;;;;;;5026233;28;20017;-71
2023/11/13 04:07:20;;;;;;;5.05;2.70;;;7.60;99.90;;;;;;5013363;28;20045;-70
2023/11/13 04:09:47;;;;;;;3.72;1.67;;;7.60;99.90;;;;;;5020773;28;20442;-70
2023/11/13 04:12:12;;;;;;;3.78;1.83;;;7.60;99.90;;;;;;5012239;28;20432;-71
2023/11/13 04:14:38;;;;;;;3.92;1.90;;;7.60;99.90;;;;;;5012636;28;20492;-70
2023/11/13 04:17:05;;;;;;;3.03;1.42;;;7.60;99.90;;;;;;5028846;28;20050;-70
2023/11/13 04:19:30;;;;;;;3.78;1.75;;;7.60;99.90;;;;;;5016752;28;20037;-70
2023/11/13 04:21:56;;;;;;;4.65;1.65;;;7.70;99.90;;;;;;5013570;28;20033;-70
2023/11/13 04:24:22;;;;;;;18.33;1.88;;;7.70;99.90;;;;;;5024582;28;20033;-70
2023/11/13 04:26:47;;;;;;;3.92;2.53;;;7.70;99.90;;;;;;5028663;28;20033;-70
2023/11/13 04:29:13;;;;;;;2.47;1.83;;;7.70;99.90;;;;;;5019154;28;20040;-70
2023/11/13 04:31:39;;;;;;;3.63;2.22;;;7.80;99.90;;;;;;5012181;28;20057;-70
2023/11/13 04:34:07;;;;;;;4.30;1.98;;;7.80;99.90;;;;;;5011232;28;20467;-70
2023/11/13 04:36:33;;;;;;;3.42;1.88;;;7.80;99.90;;;;;;5013008;28;20022;-70
2023/11/13 04:38:59;;;;;;;3.63;2.00;;;7.90;99.90;;;;;;5010756;28;20026;-70
2023/11/13 04:41:26;;;;;;;3.55;1.95;;;7.90;99.90;;;;;;5013350;28;20073;-70
2023/11/13 04:43:52;;;;;;;3.47;1.80;;;7.90;99.90;;;;;;5028026;28;21751;-70
2023/11/13 04:46:19;;;;;;;4.50;2.08;;;8.00;99.90;;;;;;5023972;28;20045;-70
2023/11/13 04:48:45;;;;;;;6.38;2.85;;;8.00;99.90;;;;;;5012061;28;20121;-71
2023/11/13 04:51:11;;;;;;;6.07;3.08;;;8.00;99.90;;;;;;5023490;28;20486;-71
2023/11/13 04:53:38;;;;;;;8.85;3.40;;;8.10;99.90;;;;;;5013542;28;20022;-70
2023/11/13 04:56:04;;;;;;;5.57;3.00;;;8.10;99.90;;;;;;5013394;28;20021;-70
2023/11/13 04:58:30;;;;;;;3.75;2.13;;;8.20;99.90;;;;;;5010229;28;20117;-70
2023/11/13 05:00:56;;;;;;;5.93;2.63;;;8.20;99.90;;;;;;5013496;28;20117;-71
2023/11/13 05:03:22;;;;;;;4.90;2.85;;;8.30;99.90;;;;;;5004798;28;20156;-71
2023/11/13 05:05:47;;;;;;;6.00;3.20;;;8.30;99.90;;;;;;5028063;28;20406;-70
2023/11/13 05:08:14;;;;;;;3.97;2.22;;;8.40;99.90;;;;;;5010233;28;20030;-70
2023/11/13 05:10:39;;;;;;;4.97;2.28;;;8.50;99.90;;;;;;5012791;28;20152;-71
2023/11/13 05:13:05;;;;;;;4.13;2.20;;;8.60;99.90;;;;;;5010857;28;20105;-70
2023/11/13 05:15:31;;;;;;;4.30;2.88;;;8.70;99.90;;;;;;5041432;28;20029;-71
2023/11/13 05:17:57;;;;;;;3.42;1.85;;;8.80;99.90;;;;;;5010267;28;20034;-72
2023/11/13 05:20:22;;;;;;;5.45;2.92;;;8.90;99.90;;;;;;5015168;28;20030;-71
2023/11/13 05:22:48;;;;;;;5.18;2.00;;;8.90;99.90;;;;;;5016506;28;20442;-70
2023/11/13 05:25:15;;;;;;;4.95;2.65;;;9.00;99.90;;;;;;5035032;28;20111;-71
2023/11/13 05:27:41;;;;;;;4.72;2.20;;;9.10;99.90;;;;;;5020579;28;20061;-71
2023/11/13 05:30:08;;;;;;;6.60;3.25;;;9.20;99.90;;;;;;5022327;28;20538;-70
2023/11/13 05:32:34;;;;;;;5.22;2.15;;;9.20;99.90;;;;;;5028040;28;20026;-70
2023/11/13 05:35:01;;;;;;;2.85;1.85;;;9.30;99.90;;;;;;5034690;28;20021;-71
2023/11/13 05:37:27;;;;;;;3.78;1.73;;;9.40;99.90;;;;;;5034942;28;20033;-72
2023/11/13 05:39:54;;;;;;;3.75;2.05;;;9.50;99.90;;;;;;5020914;28;20036;-72
2023/11/13 05:42:23;;;;;;;3.50;1.90;;;9.50;99.90;;;;;;5020144;28;20060;-72
2023/11/13 05:44:49;;;;;;;11.68;1.52;;;9.50;99.90;;;;;;5028733;28;20035;-73
2023/11/13 05:47:16;;;;;;;7.10;2.10;;;9.60;99.90;;;;;;5014672;28;20034;-71
2023/11/13 05:49:42;;;;;;;2.97;1.50;;;9.60;99.90;;;;;;5028423;28;20033;-71
2023/11/13 05:52:08;;;;;;;9.23;2.00;;;9.70;99.90;;;;;;5020475;28;20125;-71
2023/11/13 05:54:34;;;;;;;3.97;1.35;;;9.70;99.90;;;;;;5024925;28;20018;-70
2023/11/13 05:56:59;;;;;;;5.53;1.33;;;9.70;99.90;;;;;;5016068;28;20084;-67
2023/11/13 05:59:25;;;;;;;6.78;1.50;;;9.80;99.90;;;;;;5016440;28;20033;-71
2023/11/13 06:01:51;;;;;;;1.85;1.20;;;9.80;99.90;;;;;;5016114;28;20372;-71
2023/11/13 06:04:17;;;;;;;2.88;1.48;;;9.80;99.90;;;;;;5025381;28;20025;-71
2023/11/13 06:06:46;;;;;;;2.88;1.50;;;9.90;99.90;;;;;;5029608;28;20040;-72
2023/11/13 06:09:12;;;;;;;5.10;1.40;;;9.90;99.90;;;;;;5021011;28;20018;-70
2023/11/13 06:11:38;;;;;;;2.55;1.27;;;9.80;99.90;;;;;;5014437;28;20468;-72
2023/11/13 06:14:07;;;;;;;8.98;1.83;;;9.80;99.90;;;;;;5022874;28;20060;-70
2023/11/13 06:16:33;;;;;;;3.72;1.50;;;9.80;99.90;;;;;;5013959;28;20112;-71
2023/11/13 06:19:01;;;;;;;3.88;1.55;;;9.80;99.90;;;;;;5029934;28;20090;-70
2023/11/13 06:21:27;;;;;;;7.38;2.15;;;9.80;99.90;;;;;;5012881;28;20064;-71
2023/11/13 06:23:53;;;;;;;9.95;3.08;;;9.80;99.90;;;;;;5011529;28;20066;-70
2023/11/13 06:26:19;;;;;;;3.65;2.53;;;9.80;99.90;;;;;;5022432;28;20065;-71
2023/11/13 06:28:44;;;;;;;5.40;2.20;;;9.80;99.90;;;;;;5025056;28;20538;-72
2023/11/13 06:31:10;;;;;;;12.57;2.63;;;9.90;99.90;;;;;;5026048;28;20037;-71
2023/11/13 06:33:37;;;;;;;5.22;1.42;;;9.90;99.90;;;;;;5031597;28;20433;-72
2023/11/13 06:36:10;;;;;;;5.15;1.58;;;9.90;99.90;;;;;;5032413;28;20029;-70
2023/11/13 06:38:37;;;;;;;4.45;1.30;;;10.00;99.90;;;;;;5015576;28;20022;-70
2023/11/13 06:41:04;;;;;;;13.45;1.40;;;10.10;99.90;;;;;;5012687;28;20032;-70
2023/11/13 06:43:31;;;;;;;7.05;2.58;;;10.10;99.90;;;;;;5019918;28;20033;-72
2023/11/13 06:45:58;;;;;;;4.25;1.58;;;10.10;99.90;;;;;;5035579;28;20029;-71
2023/11/13 06:48:25;;;;;;;2.47;1.33;;;10.10;99.90;;;;;;5012894;28;20034;-72
2023/11/13 06:50:50;;;;;;;8.77;3.00;;;10.00;99.90;;;;;;5027274;28;20041;-70
2023/11/13 06:53:16;;;;;;;5.75;1.65;;;10.00;99.90;;;;;;4995056;28;20026;-71
2023/11/13 06:55:42;;;;;;;11.75;1.73;;;10.10;99.90;;;;;;5028702;28;20030;-69
2023/11/13 06:58:08;;;;;;;5.68;1.58;;;10.10;99.90;;;;;;5015749;28;20054;-70
2023/11/13 07:00:35;;;;;;;1.58;0.95;;;10.10;99.90;;;;;;5016200;28;20053;-70
2023/11/13 07:03:02;;;;;;;3.10;1.20;;;10.20;99.90;;;;;;5020764;28;20029;-69
2023/11/13 07:05:27;;;;;;;4.30;1.63;;;10.10;99.90;;;;;;5028024;28;20160;-70
2023/11/13 07:07:55;;;;;;;4.80;1.83;;;10.20;99.90;;;;;;5035560;28;20789;-69
2023/11/13 07:10:21;;;;;;;5.93;1.88;;;10.30;99.90;;;;;;5012570;28;20356;-71
2023/11/13 07:12:49;;;;;;;4.88;1.30;;;10.30;99.90;;;;;;5017352;28;20029;-70
2023/11/13 07:15:15;;;;;;;1.88;1.15;;;10.30;99.90;;;;;;5013845;28;20029;-75
2023/11/13 07:17:41;;;;;;;3.42;0.95;;;10.40;99.90;;;;;;5024870;28;20506;-80
2023/11/13 07:20:13;;;;;;;4.65;1.17;;;10.40;99.90;;;;;;5026690;28;20037;-76
2023/11/13 07:22:40;;;;;;;13.55;1.42;;;10.40;99.90;;;;;;5019746;28;20492;-80
2023/11/13 07:25:06;;;;;;;6.28;1.10;;;10.40;99.90;;;;;;5020634;28;20464;-75
2023/11/13 07:27:32;;;;;;;3.40;1.25;;;10.40;99.90;;;;;;5026608;28;20028;-75
2023/11/13 07:29:57;;;;;;;6.43;0.90;;;10.40;99.90;;;;;;5031045;28;20387;-76
2023/11/13 07:32:26;;;;;;;7.85;1.70;;;10.40;99.90;;;;;;5005931;28;20048;-80
2023/11/13 07:34:55;;;;;;;4.82;2.25;;;10.40;99.90;;;;;;5030792;28;20017;-80
2023/11/13 07:37:24;;;;;;;21.60;1.85;;;10.40;99.90;;;;;;5026667;28;20045;-75
2023/11/13 07:39:53;;;;;;;10.07;2.50;;;10.40;99.90;;;;;;5013928;28;20074;-76
2023/11/13 07:42:19;;;;;;;5.00;2.00;;;10.40;99.90;;;;;;5018667;28;20041;-75
2023/11/13 07:44:52;;;;;;;10.10;1.77;;;10.40;99.90;;;;;;5027079;28;20037;-75
2023/11/13 07:47:18;;;;;;;9.68;1.95;;;10.40;99.90;;;;;;5016508;28;20026;-75
2023/11/13 07:49:44;;;;;;;14.95;2.38;;;10.40;99.90;;;;;;5016965;28;20026;-76
2023/11/13 07:52:14;;;;;;;9.85;2.97;;;10.40;99.90;;;;;;5025927;28;20371;-76
2023/11/13 07:54:40;;;;;;;15.38;3.15;;;10.40;99.90;;;;;;5028983;28;20034;-77
2023/11/13 07:57:08;;;;;;;7.68;2.03;;;10.30;99.90;;;;;;5016463;28;21358;-77
2023/11/13 07:59:37;;;;;;;11.30;5.00;;;10.30;99.90;;;;;;5017203;28;20767;-76
2023/11/13 08:02:03;;;;;;;7.60;2.13;;;10.30;99.90;;;;;;5017287;28;20051;-75
2023/11/13 08:04:30;;;;;;;8.55;1.70;;;10.30;99.90;;;;;;5019697;28;20025;-76
2023/11/13 08:06:56;;;;;;;7.63;3.10;;;10.30;99.90;;;;;;5027203;28;20040;-75
2023/11/13 08:09:22;;;;;;;3.33;1.83;;;10.30;99.90;;;;;;5011804;28;20026;-75
2023/11/13 08:11:52;;;;;;;9.90;4.13;;;10.30;99.90;;;;;;4995209;28;20038;-77
2023/11/13 08:14:17;;;;;;;9.15;3.53;;;10.30;99.90;;;;;;4990685;28;20060;-75
2023/11/13 08:16:43;;;;;;;9.85;2.22;;;10.30;99.90;;;;;;4995278;28;20037;-74
2023/11/13 08:19:09;;;;;;;16.02;3.60;;;10.30;99.90;;;;;;4992403;28;20026;-77
2023/11/13 08:21:35;;;;;;;8.00;2.03;;;10.30;99.90;;;;;;4994670;28;20499;-76
2023/11/13 08:24:01;;;;;;;8.32;2.15;;;10.30;99.90;;;;;;4995166;28;20398;-77
2023/11/13 08:26:32;;;;;;;5.47;2.47;;;10.40;99.90;;;;;;4997939;28;20046;-75
2023/11/13 08:28:58;;;;;;;9.10;2.25;;;10.40;99.90;;;;;;4992711;28;20105;-75
2023/11/13 08:31:26;;;;;;;16.65;2.95;;;10.40;99.90;;;;;;4991821;28;20072;-76
2023/11/13 08:33:53;;;;;;;9.18;2.65;;;10.40;99.90;;;;;;4966531;28;20034;-76
2023/11/13 08:36:28;;;;;;;10.70;2.47;;;10.40;99.90;;;;;;4976654;28;20049;-76
2023/11/13 08:38:54;;;;;;;12.25;2.30;;;10.50;99.90;;;;;;4990699;28;20038;-75
2023/11/13 08:41:21;;;;;;;9.45;2.17;;;10.50;99.90;;;;;;4992965;28;20074;-77
2023/11/13 08:43:48;;;;;;;6.05;2.00;;;10.60;99.90;;;;;;5008866;28;20072;-74
2023/11/13 08:46:14;;;;;;;5.53;1.83;;;10.60;99.90;;;;;;5014366;28;20032;-75
2023/11/13 08:48:40;;;;;;;6.43;2.88;;;10.60;99.90;;;;;;5030072;28;20125;-78
2023/11/13 08:51:07;;;;;;;10.50;2.08;;;10.60;99.90;;;;;;5016311;28;20109;-75
2023/11/13 08:53:42;;;;;;;9.07;2.17;;;10.70;99.90;;;;;;5011801;28;20109;-76
2023/11/13 08:56:15;;;;;;;14.68;2.72;;;10.70;99.90;;;;;;5030468;28;20033;-76
2023/11/13 08:58:42;;;;;;;13.23;1.98;;;10.60;99.90;;;;;;5033112;28;20057;-79
2023/11/13 09:01:08;;;;;;;7.20;2.47;;;10.70;99.90;;;;;;5029575;28;20079;-77
2023/11/13 09:03:34;;;;;;;4.30;2.10;;;10.70;99.90;;;;;;5020777;28;20038;-76
2023/11/13 09:06:08;;;;;;;4.22;2.53;;;10.60;99.90;;;;;;5033803;28;20055;-77
2023/11/13 09:08:36;;;;;;;31.60;4.47;;;10.70;99.90;;;;;;5018625;28;20125;-71
2023/11/13 09:11:04;;;;;;;7.15;1.73;;;10.60;99.90;;;;;;5021571;28;20045;-75
2023/11/13 09:13:30;;;;;;;5.47;2.35;;;10.60;99.90;;;;;;5014593;28;20029;-72
2023/11/13 09:15:55;;;;;;;9.23;2.10;;;10.60;99.90;;;;;;5021565;28;20060;-72
2023/11/13 09:18:26;;;;;;;4.07;1.63;;;10.60;99.90;;;;;;5014327;28;20154;-71
2023/11/13 09:20:54;;;;;;;3.92;1.17;;;10.60;99.90;;;;;;5021370;28;20505;-72
2023/11/13 09:23:21;;;;;;;2.80;1.38;;;10.60;99.90;;;;;;5019322;28;20038;-71
2023/11/13 09:25:47;;;;;;;7.85;2.10;;;10.50;99.90;;;;;;5021411;28;20037;-72
2023/11/13 09:28:13;;;;;;;8.07;1.50;;;10.50;99.90;;;;;;5022993;28;20044;-72
2023/11/13 09:30:42;;;;;;;8.73;1.85;;;10.50;99.90;;;;;;5014719;28;20388;-72
2023/11/13 09:33:10;;;;;;;2.63;1.40;;;10.50;99.90;;;;;;5015899;28;20029;-71
2023/11/13 09:35:37;;;;;;;7.57;1.30;;;10.50;99.90;;;;;;5016448;28;20037;-71
2023/11/13 09:38:03;;;;;;;11.80;1.95;;;10.50;99.90;;;;;;5012903;28;20472;-72
2023/11/13 09:40:34;;;;;;;10.75;2.63;;;10.50;99.90;;;;;;5027918;28;20184;-68
2023/11/13 09:43:23;;;;;;;7.73;1.20;;;10.50;99.90;;;;;;5029470;28;20025;-70
2023/11/13 09:45:55;;;;;;;5.18;2.03;;;10.50;99.90;;;;;;5022214;28;20034;-69
2023/11/13 09:48:29;;;;;;;5.47;1.88;;;10.50;99.90;;;;;;5012653;28;20038;-69
2023/11/13 09:50:59;;;;;;;3.05;1.30;;;10.50;99.90;;;;;;5026976;28;20037;-70
2023/11/13 09:53:28;;;;;;;6.05;1.55;;;10.50;99.90;;;;;;5014395;28;20097;-70
2023/11/13 09:55:55;;;;;;;3.83;1.65;;;10.50;99.90;;;;;;5014985;28;20034;-70
2023/11/13 09:58:21;;;;;;;3.63;1.85;;;10.50;99.90;;;;;;5023821;28;20479;-70
2023/11/13 10:00:47;;;;;;;3.30;1.33;;;10.50;99.90;;;;;;5022622;28;20479;-70
2023/11/13 10:03:17;;;;;;;5.72;1.70;;;10.50;99.90;;;;;;5013127;28;20037;-71
2023/11/13 10:05:44;;;;;;;3.35;1.58;;;10.50;99.90;;;;;;5015463;28;20102;-72
2023/11/13 10:08:11;;;;;;;6.22;1.42;;;10.50;99.90;;;;;;5016636;28;20032;-73
2023/11/13 10:10:39;;;;;;;2.33;1.30;;;10.60;99.90;;;;;;5017634;28;20022;-73
2023/11/13 10:13:11;;;;;;;1.98;1.20;;;10.60;99.90;;;;;;5013770;28;20028;-73
2023/11/13 10:15:42;;;;;;;5.25;2.33;;;10.60;99.90;;;;;;5021738;28;20025;-73
2023/11/13 10:18:08;;;;;;;12.45;2.33;;;10.70;99.90;;;;;;5025809;28;20028;-72
2023/11/13 10:20:45;;;;;;;6.65;2.47;;;10.70;99.90;;;;;;5001734;28;20026;-72
2023/11/13 10:23:14;;;;;;;6.03;1.88;;;10.80;99.90;;;;;;5016861;28;20100;-72
2023/11/13 10:25:53;;;;;;;2.42;1.20;;;10.80;99.90;;;;;;5034480;28;20412;-72
2023/11/13 10:28:23;;;;;;;4.90;1.70;;;10.80;99.90;;;;;;5025695;28;20348;-73
2023/11/13 10:31:00;;;;;;;5.13;2.17;;;10.90;99.90;;;;;;5014475;28;20032;-72
2023/11/13 10:33:29;;;;;;;7.18;2.03;;;10.90;99.90;;;;;;5029261;28;20033;-72
2023/11/13 10:36:04;;;;;;;7.25;2.40;;;10.90;99.90;;;;;;5033985;23;20115;-72
2023/11/13 10:38:47;;;;;;;7.60;2.15;;;11.00;99.90;;;;;;5023985;28;20531;-70
2023/11/13 10:41:19;;;;;;;5.82;1.98;;;11.00;99.90;;;;;;5026656;28;20038;-71
2023/11/13 10:43:45;;;;;;;16.73;2.47;;;11.10;99.90;;;;;;5029376;28;20128;-71
2023/11/13 10:46:30;;;;;;;7.72;1.73;;;11.10;99.90;;;;;;5025266;28;20539;-71
2023/11/13 10:48:57;;;;;;;30.55;3.58;;;11.20;99.90;;;;;;5031587;28;20434;-71
2023/11/13 10:51:25;;;;;;;5.65;2.67;;;11.30;99.90;;;;;;5033130;28;20021;-71
2023/11/13 10:53:53;;;;;;;12.38;3.08;;;11.30;99.90;;;;;;5032300;28;20044;-70
2023/11/13 10:56:19;;;;;;;6.20;2.35;;;11.30;99.90;;;;;;5031956;28;20033;-71
2023/11/13 10:58:47;;;;;;;6.65;2.63;;;11.40;99.90;;;;;;5032396;28;20048;-71
2023/11/13 11:01:27;;;;;;;7.97;2.22;;;11.40;99.90;;;;;;5029807;28;20044;-72
2023/11/13 11:03:56;;;;;;;13.23;2.50;;;11.50;99.90;;;;;;5030825;28;20113;-71
2023/11/13 11:06:25;;;;;;;6.90;2.15;;;11.50;99.90;;;;;;5028751;28;20033;-71
2023/11/13 11:08:57;;;;;;;4.07;2.15;;;11.60;99.90;;;;;;5030408;28;20021;-71
2023/11/13 11:11:24;;;;;;;;;;;11.60;99.90;;;;;;5026856;28;20482;-71
2023/11/13 11:13:59;;;;;;;3.38;1.70;;;11.60;99.90;;;;;;5019872;28;19909;-71
2023/11/13 11:16:36;;;;;;;4.53;2.05;;;11.70;99.90;;;;;;5029791;28;20099;-71
2023/11/13 11:19:09;;;;;;;4.45;1.40;;;11.70;99.90;;;;;;5030337;28;20097;-71
2023/11/13 11:22:00;;;;;;;18.70;2.97;;;11.70;99.90;;;;;;5020716;28;20029;-71
2023/11/13 11:24:56;;;;;;;5.55;1.65;;;11.70;99.90;;;;;;5019526;28;20108;-71
2023/11/13 11:27:40;;;;;;;5.30;2.00;;;11.80;99.90;;;;;;5014904;28;20516;-72
2023/11/13 11:30:30;;;;;;;5.07;1.80;;;11.80;99.90;;;;;;5024038;28;20033;-71
2023/11/13 11:32:58;;;;;;;5.85;2.25;;;11.80;99.90;;;;;;5019024;28;20038;-70
2023/11/13 11:35:29;;;;;;;7.07;2.35;;;11.90;99.90;;;;;;5031482;28;20120;-71
2023/11/13 11:38:14;;;;;;;;;;;11.90;99.90;;;;;;5029920;28;20033;-71
2023/11/13 11:40:39;;;;;;;3.58;1.65;;;11.90;99.90;;;;;;5032313;28;20263;-71
2023/11/13 11:43:08;;;;;;;4.70;2.05;;;12.00;99.90;;;;;;5026474;28;20132;-71
2023/11/13 11:45:41;;;;;;;8.10;2.22;;;12.00;99.90;;;;;;5029575;28;20495;-70
2023/11/13 11:48:08;;;;;;;8.70;2.88;;;12.10;99.90;;;;;;5021023;28;20041;-71
2023/11/13 11:50:37;;;;;;;7.85;3.38;;;12.20;99.90;;;;;;5030397;28;20479;-70
2023/11/13 11:53:03;;;;;;;3.22;1.73;;;12.20;99.90;;;;;;5028872;28;20491;-71
2023/11/13 11:55:30;;;;;;;10.57;1.70;;;12.30;99.90;;;;;;5028555;28;20059;-72
2023/11/13 11:57:56;;;;;;;4.93;1.67;;;12.30;99.90;;;;;;5024444;28;20052;-73
2023/11/13 12:00:26;;;;;;;8.93;2.15;;;12.50;99.90;;;;;;5025069;28;20055;-72
2023/11/13 12:02:53;;;;;;;11.80;2.33;;;12.50;99.90;;;;;;5026175;28;20044;-72
2023/11/13 12:05:19;;;;;;;3.80;1.63;;;12.60;99.90;;;;;;5008482;28;20048;-73
2023/11/13 12:07:50;;;;;;;3.03;1.27;;;12.60;99.90;;;;;;5036006;28;20041;-72
2023/11/13 12:10:20;;;;;;;4.05;1.25;;;12.70;99.90;;;;;;5027941;28;20025;-73
2023/11/13 12:12:48;;;;;;;2.05;1.05;;;12.70;99.90;;;;;;5027246;28;20052;-71
2023/11/13 12:15:14;;;;;;;5.55;1.15;;;12.80;99.90;;;;;;5024944;28;20030;-71
2023/11/13 12:17:42;;;;;;;4.15;1.15;;;12.90;99.90;;;;;;5024466;28;20113;-71
2023/11/13 12:20:10;;;;;;;3.88;1.77;;;13.00;99.90;;;;;;5028467;28;20026;-71
2023/11/13 12:22:41;;;;;;;8.55;2.47;;;13.10;99.90;;;;;;5023566;28;20030;-71
2023/11/13 12:25:08;;;;;;;4.32;1.45;;;13.20;99.90;;;;;;5019499;28;20071;-71
2023/11/13 12:27:38;;;;;;;2.88;1.35;;;13.20;99.90;;;;;;5022272;28;20046;-71
2023/11/13 12:30:16;;;;;;;3.65;1.23;;;13.30;99.90;;;;;;5027615;28;20523;-71
2023/11/13 12:32:51;;;;;;;2.78;1.45;;;13.30;99.90;;;;;;5028611;28;20521;-72
2023/11/13 12:35:17;;;;;;;4.70;0.88;;;13.30;99.90;;;;;;5026285;28;20038;-71
2023/11/13 12:37:50;;;;;;;3.40;1.38;;;13.30;99.90;;;;;;5012633;28;20029;-70
2023/11/13 12:40:18;;;;;;;10.18;1.98;;;13.40;99.90;;;;;;5009953;28;20018;-70
2023/11/13 12:42:44;;;;;;;9.27;1.58;;;13.30;99.90;;;;;;5012222;28;20042;-72
2023/11/13 12:45:15;;;;;;;11.15;1.85;;;13.40;99.90;;;;;;5004449;28;20057;-72
2023/11/13 12:47:55;;;;;;;2.30;1.02;;;13.40;99.90;;;;;;4999807;28;20061;-70
2023/11/13 12:50:23;;;;;;;2.55;1.17;;;13.40;99.90;;;;;;5003948;28;20031;-71
2023/11/13 12:52:54;;;;;;;3.47;1.27;;;13.40;99.90;;;;;;4998470;28;20030;-71